Time;durP1;ratioP1;P1;durP2;ratioP2;P2;SDS_P1;SDS_P2;PMS_P1;PMS_P2;Temp;Humidity;BMP_temperature;BMP_pressure;BME280_temperature;BME280_humidity;BME280_pressure;Samples;Min_cycle;Max_cycle;Signal;HPM_P1;HPM_P2
2023/03/13 00:00:47;;;;;;;3.83;1.52;;;;;;;2.94;91.72;99462.91;5109162;28;20004;-69
2023/03/13 00:03:13;;;;;;;3.72;2.00;;;;;;;3.21;90.56;99485.41;5111860;28;20056;-70
2023/03/13 00:05:38;;;;;;;3.63;1.95;;;;;;;3.26;91.30;99472.38;5112144;28;20038;-66
2023/03/13 00:08:03;;;;;;;3.13;1.67;;;;;;;3.10;91.06;99440.66;5112535;28;20044;-65
2023/03/13 00:10:29;;;;;;;2.80;1.83;;;;;;;2.87;92.84;99430.13;5106029;28;20024;-64
2023/03/13 00:12:54;;;;;;;3.95;1.90;;;;;;;3.19;92.25;99460.81;5105978;28;20058;-64
2023/03/13 00:15:20;;;;;;;3.22;1.80;;;;;;;3.25;91.86;99460.09;5085580;28;20031;-65
2023/03/13 00:17:45;;;;;;;3.15;1.83;;;;;;;3.27;91.42;99447.41;5097554;28;20439;-64
2023/03/13 00:20:11;;;;;;;3.50;1.58;;;;;;;3.28;92.20;99445.63;5096995;28;20032;-64
2023/03/13 00:22:36;;;;;;;3.55;2.20;;;;;;;3.25;91.93;99438.81;5095373;28;20137;-64
2023/03/13 00:25:02;;;;;;;3.22;1.63;;;;;;;3.38;91.31;99439.97;5096900;28;20032;-64
2023/03/13 00:27:32;;;;;;;2.70;1.52;;;;;;;3.34;91.35;99434.22;5095094;28;20020;-64
2023/03/13 00:29:57;;;;;;;4.80;1.80;;;;;;;3.34;90.66;99420.09;5096340;28;20042;-64
2023/03/13 00:32:23;;;;;;;4.03;1.58;;;;;;;3.26;92.18;99413.88;5095747;28;20035;-64
2023/03/13 00:34:48;;;;;;;2.95;1.70;;;;;;;3.33;91.25;99402.50;5098263;28;20024;-64
2023/03/13 00:37:13;;;;;;;3.67;1.85;;;;;;;3.40;91.45;99384.78;5097194;28;20390;-64
2023/03/13 00:39:39;;;;;;;2.45;1.40;;;;;;;3.30;91.73;99382.44;5097074;28;20039;-64
2023/03/13 00:42:05;;;;;;;3.08;1.80;;;;;;;3.33;91.39;99358.13;5097726;28;20119;-64
2023/03/13 00:44:30;;;;;;;5.38;1.90;;;;;;;3.38;91.56;99363.72;5097835;28;20107;-65
2023/03/13 00:46:56;;;;;;;2.15;1.50;;;;;;;3.36;92.18;99359.59;5096755;28;20028;-64
2023/03/13 00:49:21;;;;;;;2.08;1.63;;;;;;;3.38;92.05;99355.75;5095171;28;20043;-65
2023/03/13 00:51:46;;;;;;;2.70;1.60;;;;;;;3.43;91.94;99352.50;5096554;28;20024;-64
2023/03/13 00:54:12;;;;;;;1.90;1.58;;;;;;;3.38;93.11;99353.09;5095433;28;20024;-64
2023/03/13 00:56:37;;;;;;;5.55;2.15;;;;;;;3.50;91.67;99342.75;5094796;28;20470;-64
2023/03/13 00:59:03;;;;;;;4.47;2.25;;;;;;;3.52;91.66;99343.41;5094629;28;20058;-65
2023/03/13 01:01:34;;;;;;;4.50;1.98;;;;;;;3.50;91.35;99324.97;5094282;28;20087;-64
2023/03/13 01:04:06;;;;;;;3.15;1.73;;;;;;;3.54;91.15;99317.44;5102417;28;20020;-65
2023/03/13 01:06:34;;;;;;;4.15;1.90;;;;;;;3.46;91.95;99318.38;5103203;28;20020;-64
2023/03/13 01:09:00;;;;;;;2.10;1.85;;;;;;;3.57;91.67;99313.56;5102750;28;20016;-65
2023/03/13 01:11:28;;;;;;;3.88;1.80;;;;;;;3.38;92.30;99289.28;5103268;28;20032;-64
2023/03/13 01:14:03;;;;;;;2.47;1.80;;;;;;;3.55;91.88;99297.81;5102085;28;20047;-64
2023/03/13 01:16:31;;;;;;;2.83;1.50;;;;;;;3.47;93.01;99293.44;5103511;28;20032;-65
2023/03/13 01:18:59;;;;;;;2.88;1.95;;;;;;;3.58;91.95;99288.66;5104001;28;20101;-64
2023/03/13 01:21:27;;;;;;;2.35;1.70;;;;;;;3.58;92.19;99281.47;5105873;28;20457;-65
2023/03/13 01:23:53;;;;;;;3.72;1.83;;;;;;;3.51;92.93;99284.09;5104580;28;20021;-65
2023/03/13 01:26:20;;;;;;;3.10;1.67;;;;;;;3.60;92.33;99276.78;5101450;28;20024;-64
2023/03/13 01:28:45;;;;;;;2.58;1.60;;;;;;;3.49;92.61;99242.72;5100438;28;20027;-65
2023/03/13 01:31:20;;;;;;;2.55;1.60;;;;;;;3.57;93.65;99249.75;5098348;28;20024;-65
2023/03/13 01:33:47;;;;;;;2.15;1.40;;;;;;;3.57;93.79;99250.56;5104490;28;20051;-64
2023/03/13 01:36:13;;;;;;;2.13;1.42;;;;;;;3.41;93.69;99214.44;5084995;28;20028;-64
2023/03/13 01:38:39;;;;;;;1.73;1.30;;;;;;;3.68;93.90;99231.44;5083623;28;20093;-64
2023/03/13 01:41:07;;;;;;;2.42;1.33;;;;;;;3.69;93.79;99227.75;5064981;28;20040;-64
2023/03/13 01:43:35;;;;;;;1.65;1.20;;;;;;;3.52;94.04;99202.47;5083740;28;20333;-65
2023/03/13 01:46:08;;;;;;;2.08;0.90;;;;;;;3.52;95.38;99218.41;5081127;28;20047;-65
2023/03/13 01:48:58;;;;;;;1.10;1.00;;;;;;;3.65;95.10;99215.88;5086436;28;20031;-65
2023/03/13 01:51:32;;;;;;;2.88;1.38;;;;;;;3.61;94.04;99192.47;5085112;28;20005;-64
2023/03/13 01:54:12;;;;;;;1.10;1.00;;;;;;;3.65;95.28;99204.41;5083910;28;20107;-64
2023/03/13 01:56:45;;;;;;;1.05;0.95;;;;;;;3.66;95.55;99201.53;5079149;28;20024;-64
2023/03/13 01:59:15;;;;;;;1.75;0.95;;;;;;;3.70;94.50;99188.66;5081908;28;20094;-65
2023/03/13 02:01:43;;;;;;;1.80;1.10;;;;;;;3.68;95.16;99183.56;5082906;28;20513;-65
2023/03/13 02:04:08;;;;;;;0.90;0.80;;;;;;;3.70;95.99;99178.03;5081574;28;20020;-65
2023/03/13 02:06:38;;;;;;;0.80;0.80;;;;;;;3.74;95.70;99184.59;5082636;28;20515;-65
2023/03/13 02:09:14;;;;;;;1.80;0.80;;;;;;;3.79;95.31;99178.72;5083044;28;20013;-65
2023/03/13 02:11:54;;;;;;;1.05;0.82;;;;;;;3.83;94.38;99175.44;5081654;28;20024;-64
2023/03/13 02:14:24;;;;;;;0.77;0.57;;;;;;;3.83;94.84;99164.00;5078913;28;20025;-64
2023/03/13 02:16:51;;;;;;;1.85;0.77;;;;;;;3.83;94.84;99166.66;5077005;28;20540;-64
2023/03/13 02:19:41;;;;;;;2.92;0.73;;;;;;;3.80;95.04;99151.91;5078451;28;20048;-65
2023/03/13 02:22:25;;;;;;;0.70;0.50;;;;;;;3.82;95.16;99144.56;5077635;28;20067;-64
2023/03/13 02:25:02;;;;;;;3.20;0.70;;;;;;;3.86;95.15;99134.34;5077291;28;20025;-65
2023/03/13 02:27:27;;;;;;;0.77;0.73;;;;;;;3.78;95.12;99130.00;5076875;28;20032;-65
2023/03/13 02:29:53;;;;;;;1.50;0.80;;;;;;;3.86;94.97;99137.00;5079655;28;20016;-65
2023/03/13 02:32:19;;;;;;;1.00;0.80;;;;;;;3.87;95.92;99128.00;5078125;28;20067;-64
2023/03/13 02:34:48;;;;;;;1.23;0.80;;;;;;;3.92;95.37;99122.91;5060840;28;20554;-65
2023/03/13 02:37:14;;;;;;;1.42;0.70;;;;;;;3.91;95.07;99122.09;5078528;28;20036;-65
2023/03/13 02:39:47;;;;;;;1.15;0.70;;;;;;;3.81;95.22;99099.50;5076679;28;20050;-65
2023/03/13 02:42:15;;;;;;;1.63;0.70;;;;;;;4.02;94.80;99109.25;5077290;28;20024;-64
2023/03/13 02:44:43;;;;;;;1.08;0.60;;;;;;;3.93;95.62;99100.59;5078076;28;20161;-64
2023/03/13 02:47:09;;;;;;;1.85;0.80;;;;;;;3.95;95.79;99093.25;5074353;28;20028;-65
2023/03/13 02:49:35;;;;;;;1.75;0.70;;;;;;;3.89;96.35;99072.75;5072713;28;20052;-65
2023/03/13 02:52:32;;;;;;;1.55;0.60;;;;;;;3.93;96.69;99066.00;5077569;28;20435;-65
2023/03/13 02:55:05;;;;;;;1.50;0.77;;;;;;;4.02;96.25;99051.50;5068492;28;20124;-65
2023/03/13 02:57:31;;;;;;;0.77;0.52;;;;;;;3.96;96.21;99049.63;5075963;28;20055;-65
2023/03/13 02:59:56;;;;;;;1.63;0.40;;;;;;;3.97;96.83;99043.28;5077289;28;20028;-65
2023/03/13 03:02:22;;;;;;;0.82;0.60;;;;;;;3.92;95.88;99013.81;5077372;28;20082;-65
2023/03/13 03:04:47;;;;;;;0.90;0.60;;;;;;;4.03;95.77;99029.19;5076672;28;20087;-65
2023/03/13 03:07:13;;;;;;;2.15;0.70;;;;;;;4.07;96.16;99029.59;5076936;28;20047;-65
2023/03/13 03:09:38;;;;;;;0.60;0.50;;;;;;;4.11;95.80;99020.22;5075030;28;20032;-65
2023/03/13 03:12:04;;;;;;;1.95;0.57;;;;;;;4.11;96.00;99023.69;5077167;28;20472;-65
2023/03/13 03:14:30;;;;;;;0.80;0.52;;;;;;;3.99;97.19;99028.78;5076650;28;20041;-65
2023/03/13 03:16:55;;;;;;;0.95;0.52;;;;;;;4.12;96.30;99014.69;5075983;28;20029;-65
2023/03/13 03:19:20;;;;;;;1.55;0.50;;;;;;;4.17;96.72;99014.06;5075429;28;20127;-65
2023/03/13 03:21:48;;;;;;;1.10;0.50;;;;;;;4.19;96.18;99009.38;5074800;28;20029;-65
2023/03/13 03:24:13;;;;;;;0.55;0.47;;;;;;;4.16;96.54;99001.78;5056452;28;20561;-65
2023/03/13 03:26:39;;;;;;;0.30;0.30;;;;;;;4.11;96.55;98994.41;5057114;28;20193;-66
2023/03/13 03:29:06;;;;;;;0.77;0.50;;;;;;;4.18;96.79;98976.63;5076219;28;20123;-65
2023/03/13 03:31:32;;;;;;;1.25;0.50;;;;;;;4.17;97.38;98972.31;5074960;28;20471;-65
2023/03/13 03:33:57;;;;;;;1.05;0.68;;;;;;;4.23;97.37;98968.00;5074815;28;20040;-66
2023/03/13 03:36:23;;;;;;;1.92;0.47;;;;;;;4.16;97.88;98967.19;5076434;28;20017;-66
2023/03/13 03:38:49;;;;;;;1.80;0.60;;;;;;;4.20;97.66;98949.78;5076001;28;20021;-65
2023/03/13 03:41:15;;;;;;;0.60;0.60;;;;;;;4.27;97.48;98958.59;5075312;28;20081;-66
2023/03/13 03:43:41;;;;;;;1.20;0.45;;;;;;;4.24;97.45;98953.69;5076487;28;20028;-67
2023/03/13 03:46:07;;;;;;;0.68;0.57;;;;;;;4.33;97.13;98951.63;5075510;28;20483;-66
2023/03/13 03:48:33;;;;;;;0.50;0.50;;;;;;;4.22;97.56;98923.78;5076886;28;20610;-66
2023/03/13 03:50:58;;;;;;;1.13;0.73;;;;;;;4.39;96.98;98940.97;5076435;28;20060;-67
2023/03/13 03:53:24;;;;;;;1.05;0.60;;;;;;;4.40;97.35;98939.13;5075134;28;20269;-67
2023/03/13 03:55:49;;;;;;;0.50;0.50;;;;;;;4.37;97.71;98943.06;5076678;28;20032;-66
2023/03/13 03:58:15;;;;;;;0.68;0.57;;;;;;;4.41;98.05;98930.97;5074552;28;20028;-66
2023/03/13 04:00:45;;;;;;;0.70;0.50;;;;;;;4.42;97.98;98929.09;5076406;28;20028;-67
2023/03/13 04:03:11;;;;;;;0.60;0.60;;;;;;;4.49;97.63;98935.25;5075390;28;20136;-67
2023/03/13 04:05:36;;;;;;;0.52;0.50;;;;;;;4.52;97.63;98934.84;5075764;28;20033;-67
2023/03/13 04:08:02;;;;;;;0.63;0.50;;;;;;;4.54;97.79;98932.81;5076286;28;20024;-67
2023/03/13 04:10:28;;;;;;;0.43;0.40;;;;;;;4.57;97.51;98931.53;5075144;28;20031;-68
2023/03/13 04:12:53;;;;;;;0.75;0.60;;;;;;;4.61;97.17;98919.47;5058364;28;20100;-67
2023/03/13 04:15:18;;;;;;;0.75;0.40;;;;;;;4.62;97.64;98913.13;5076394;28;20032;-67
2023/03/13 04:17:44;;;;;;;0.60;0.50;;;;;;;4.50;97.60;98880.13;5074043;28;20393;-67
2023/03/13 04:20:12;;;;;;;2.17;0.60;;;;;;;4.59;97.66;98902.88;5075559;28;20052;-68
2023/03/13 04:22:38;;;;;;;1.05;0.60;;;;;;;4.66;98.12;98901.81;5075750;28;20363;-67
2023/03/13 04:25:04;;;;;;;1.77;0.75;;;;;;;4.47;99.01;98863.56;5075245;28;20044;-67
2023/03/13 04:27:29;;;;;;;1.08;0.63;;;;;;;4.60;98.77;98872.53;5075024;28;20021;-67
2023/03/13 04:29:54;;;;;;;1.98;1.05;;;;;;;4.70;99.90;98881.75;5072930;28;20379;-67
2023/03/13 04:32:20;;;;;;;4.35;1.10;;;;;;;4.85;99.16;98870.03;5076179;28;20028;-67
2023/03/13 04:34:45;;;;;;;1.98;1.25;;;;;;;4.91;98.91;98861.19;5057372;28;20043;-67
2023/03/13 04:37:11;;;;;;;1.90;1.42;;;;;;;4.95;99.22;98854.41;5073378;28;20035;-67
2023/03/13 04:39:36;;;;;;;3.50;1.88;;;;;;;4.99;98.82;98844.97;5070910;28;20115;-67
2023/03/13 04:42:02;;;;;;;3.78;2.38;;;;;;;4.96;98.92;98845.38;5088717;28;20340;-67
2023/03/13 04:44:27;;;;;;;7.47;2.90;;;;;;;4.99;99.07;98836.97;5094089;28;20024;-67
2023/03/13 04:46:53;;;;;;;8.90;3.88;;;;;;;5.07;99.85;98838.59;5095391;28;20032;-67
2023/03/13 04:49:18;;;;;;;10.25;4.20;;;;;;;5.16;99.07;98832.78;5094114;28;20024;-67
2023/03/13 04:51:44;;;;;;;9.18;4.07;;;;;;;5.14;99.31;98837.53;5093431;28;20421;-67
2023/03/13 04:54:11;;;;;;;9.18;3.97;;;;;;;5.18;99.79;98835.25;5095829;28;20039;-67
2023/03/13 04:56:36;;;;;;;16.23;4.53;;;;;;;5.28;99.52;98826.78;5077862;28;20034;-66
2023/03/13 04:59:02;;;;;;;17.90;4.72;;;;;;;5.33;99.32;98818.97;5095610;28;20024;-67
2023/03/13 05:01:27;;;;;;;16.63;5.25;;;;;;;5.29;99.77;98817.75;5104451;28;20083;-66
2023/03/13 05:03:53;;;;;;;13.43;5.50;;;;;;;5.31;100.00;98810.38;5104134;28;20053;-67
2023/03/13 05:06:18;;;;;;;14.23;5.22;;;;;;;5.33;99.72;98801.13;5073230;28;20059;-67
2023/03/13 05:08:44;;;;;;;15.13;5.60;;;;;;;5.42;99.57;98801.69;5096907;28;21057;-66
2023/03/13 05:11:10;;;;;;;17.50;6.05;;;;;;;5.41;100.00;98790.19;5098627;28;20042;-66
2023/03/13 05:13:35;;;;;;;15.95;5.82;;;;;;;5.40;100.00;98783.25;5098856;28;20050;-66
2023/03/13 05:16:01;;;;;;;16.67;5.63;;;;;;;5.50;100.00;98776.63;5099858;28;20426;-67
2023/03/13 05:18:27;;;;;;;18.77;6.50;;;;;;;5.52;100.00;98774.53;5100331;28;20059;-66
2023/03/13 05:20:52;;;;;;;15.75;5.88;;;;;;;5.52;100.00;98767.34;5099649;28;20510;-68
2023/03/13 05:23:17;;;;;;;17.90;5.97;;;;;;;5.58;100.00;98763.81;5099110;28;20032;-67
2023/03/13 05:25:43;;;;;;;11.88;4.95;;;;;;;5.65;100.00;98766.44;5097862;28;20132;-67
2023/03/13 05:28:08;;;;;;;18.33;5.68;;;;;;;5.59;100.00;98754.75;5098908;28;20455;-66
2023/03/13 05:30:34;;;;;;;13.52;5.40;;;;;;;5.69;100.00;98750.81;5098167;28;20062;-66
2023/03/13 05:33:00;;;;;;;12.57;5.70;;;;;;;5.70;100.00;98734.59;5099411;28;20131;-67
2023/03/13 05:35:25;;;;;;;12.05;5.80;;;;;;;5.56;100.00;98711.69;5099833;28;20028;-67
2023/03/13 05:37:51;;;;;;;16.65;5.70;;;;;;;5.72;100.00;98731.69;5101014;28;20030;-66
2023/03/13 05:40:16;;;;;;;14.23;6.35;;;;;;;5.78;100.00;98725.47;5101076;28;20107;-67
2023/03/13 05:42:42;;;;;;;15.18;5.82;;;;;;;5.65;100.00;98711.22;5098782;28;20505;-67
2023/03/13 05:45:08;;;;;;;17.08;6.80;;;;;;;5.79;100.00;98717.25;5087985;28;20028;-66
2023/03/13 05:47:35;;;;;;;20.83;6.95;;;;;;;5.86;100.00;98709.19;5110996;28;20471;-67
2023/03/13 05:50:00;;;;;;;23.45;8.23;;;;;;;5.88;100.00;98707.13;5098034;28;20047;-67
2023/03/13 05:52:27;;;;;;;31.42;9.02;;;;;;;5.87;100.00;98692.16;5078852;28;20040;-67
2023/03/13 05:54:52;;;;;;;30.63;10.23;;;;;;;5.94;100.00;98687.59;5095896;28;20110;-67
2023/03/13 05:57:18;;;;;;;32.92;9.43;;;;;;;5.97;100.00;98675.66;5081778;28;20130;-66
2023/03/13 05:59:43;;;;;;;36.78;10.80;;;;;;;6.02;100.00;98675.78;5100822;28;20049;-67
2023/03/13 06:02:09;;;;;;;40.72;11.70;;;;;;;6.07;100.00;98675.94;5097221;28;20122;-67
2023/03/13 06:04:34;;;;;;;37.30;10.75;;;;;;;6.07;100.00;98659.94;5098995;28;20027;-67
2023/03/13 06:07:00;;;;;;;34.70;11.30;;;;;;;6.13;100.00;98667.06;5097673;28;20024;-68
2023/03/13 06:09:25;;;;;;;42.10;10.85;;;;;;;6.18;100.00;98669.06;5097851;28;20024;-67
2023/03/13 06:11:50;;;;;;;32.83;11.10;;;;;;;6.12;100.00;98644.03;5097112;28;20541;-67
2023/03/13 06:14:16;;;;;;;33.67;9.90;;;;;;;6.17;100.00;98644.22;5098853;28;20024;-66
2023/03/13 06:16:41;;;;;;;36.40;10.43;;;;;;;6.21;100.00;98633.88;5097344;28;20026;-66
2023/03/13 06:19:07;;;;;;;34.10;9.13;;;;;;;6.10;100.00;98622.13;5060376;28;20055;-66
2023/03/13 06:21:32;;;;;;;42.90;10.93;;;;;;;6.19;100.00;98639.47;5098118;28;20035;-66
2023/03/13 06:23:58;;;;;;;45.08;11.30;;;;;;;6.28;100.00;98640.78;5100555;28;20516;-66
2023/03/13 06:26:24;;;;;;;39.03;10.50;;;;;;;6.29;100.00;98622.88;5099304;28;20039;-66
2023/03/13 06:28:50;;;;;;;42.05;10.60;;;;;;;6.30;100.00;98622.69;5098724;28;20032;-66
2023/03/13 06:31:16;;;;;;;42.92;12.27;;;;;;;6.35;100.00;98620.13;5098705;28;20031;-66
2023/03/13 06:33:41;;;;;;;43.28;12.73;;;;;;;6.18;100.00;98592.41;5082619;28;20028;-66
2023/03/13 06:36:07;;;;;;;34.45;11.43;;;;;;;6.06;100.00;98580.84;5099569;28;20024;-66
2023/03/13 06:38:33;;;;;;;48.53;11.75;;;;;;;6.30;100.00;98619.19;5101256;28;20047;-66
2023/03/13 06:40:58;;;;;;;44.00;11.40;;;;;;;6.27;100.00;98609.78;5102626;28;20077;-66
2023/03/13 06:43:24;;;;;;;44.33;12.32;;;;;;;6.39;100.00;98599.16;5098131;28;20044;-67
2023/03/13 06:45:49;;;;;;;32.65;10.75;;;;;;;6.40;100.00;98600.78;5097715;28;20429;-66
2023/03/13 06:48:15;;;;;;;46.75;11.35;;;;;;;6.38;100.00;98599.38;5097947;28;20115;-66
2023/03/13 06:50:41;;;;;;;46.00;11.20;;;;;;;6.40;100.00;98589.28;5098479;28;20028;-66
2023/03/13 06:53:12;;;;;;;41.50;10.77;;;;;;;6.44;100.00;98596.59;5095439;28;20571;-66
2023/03/13 06:55:38;;;;;;;40.30;10.57;;;;;;;6.46;100.00;98589.19;5103298;28;20032;-66
2023/03/13 06:58:03;;;;;;;37.80;10.73;;;;;;;6.50;100.00;98582.34;5108142;28;20042;-67
2023/03/13 07:00:29;;;;;;;36.30;11.15;;;;;;;6.51;100.00;98575.13;5105077;28;20035;-67
2023/03/13 07:02:54;;;;;;;40.92;11.07;;;;;;;6.50;100.00;98560.16;5098526;28;20434;-66
2023/03/13 07:05:20;;;;;;;39.97;11.38;;;;;;;6.55;100.00;98560.28;5100167;28;20028;-67
2023/03/13 07:07:45;;;;;;;43.47;11.00;;;;;;;6.56;100.00;98551.25;5097940;28;20028;-68
2023/03/13 07:10:11;;;;;;;30.13;10.77;;;;;;;6.56;100.00;98532.53;5098247;28;20024;-67
2023/03/13 07:12:36;;;;;;;47.80;12.23;;;;;;;6.63;100.00;98535.09;5098109;28;20031;-67
2023/03/13 07:15:03;;;;;;;42.47;12.15;;;;;;;6.59;100.00;98527.53;5100758;28;20024;-67
2023/03/13 07:17:29;;;;;;;43.38;12.55;;;;;;;6.58;100.00;98517.88;5099038;28;20434;-67
2023/03/13 07:19:54;;;;;;;48.20;13.90;;;;;;;6.45;100.00;98493.22;5099421;28;20135;-67
2023/03/13 07:22:20;;;;;;;50.65;13.77;;;;;;;6.64;100.00;98504.66;5100156;28;20032;-69
2023/03/13 07:24:45;;;;;;;40.97;13.43;;;;;;;6.63;100.00;98498.50;5099028;28;20110;-68
2023/03/13 07:27:11;;;;;;;59.45;13.80;;;;;;;6.58;100.00;98482.34;5100973;28;20028;-68
2023/03/13 07:29:36;;;;;;;43.05;13.70;;;;;;;6.67;100.00;98486.31;5100682;28;20016;-68
2023/03/13 07:32:01;;;;;;;43.58;14.30;;;;;;;6.66;100.00;98486.56;5082399;28;20099;-67
2023/03/13 07:34:27;;;;;;;42.55;13.23;;;;;;;6.59;100.00;98482.13;5082334;28;20039;-67
2023/03/13 07:36:52;;;;;;;41.88;12.43;;;;;;;6.66;100.00;98470.50;5099612;28;20056;-67
2023/03/13 07:39:18;;;;;;;44.38;13.57;;;;;;;6.76;100.00;98473.44;5080184;28;20024;-67
2023/03/13 07:41:43;;;;;;;48.28;13.55;;;;;;;6.78;100.00;98468.66;5098303;28;20475;-68
2023/03/13 07:44:09;;;;;;;35.38;12.45;;;;;;;6.77;100.00;98459.00;5095416;28;20565;-67
2023/03/13 07:46:34;;;;;;;35.03;13.55;;;;;;;6.74;100.00;98454.94;5093191;28;20051;-67
2023/03/13 07:48:59;;;;;;;36.42;14.27;;;;;;;6.79;100.00;98451.59;5079919;28;20032;-68
2023/03/13 07:51:26;;;;;;;42.22;15.65;;;;;;;6.71;100.00;98433.19;5099337;28;20111;-68
2023/03/13 07:53:52;;;;;;;30.55;11.90;;;;;;;6.79;100.00;98443.56;5098501;28;20093;-67
2023/03/13 07:56:21;;;;;;;29.27;11.45;;;;;;;6.80;100.00;98434.50;5100558;28;20115;-68
2023/03/13 07:58:47;;;;;;;28.25;10.55;;;;;;;6.70;100.00;98431.59;5096800;28;20402;-67
2023/03/13 08:01:24;;;;;;;26.65;9.85;;;;;;;6.76;100.00;98422.66;5098478;28;20173;-66
2023/03/13 08:03:50;;;;;;;31.67;11.55;;;;;;;6.86;100.00;98412.19;5096725;28;20232;-67
2023/03/13 08:06:22;;;;;;;26.10;9.65;;;;;;;6.81;100.00;98406.72;5096801;28;20035;-67
2023/03/13 08:08:48;;;;;;;27.38;9.63;;;;;;;6.86;100.00;98398.81;5096932;28;20031;-68
2023/03/13 08:11:19;;;;;;;25.52;9.27;;;;;;;6.92;100.00;98394.38;5097229;28;20039;-68
2023/03/13 08:13:45;;;;;;;26.35;10.15;;;;;;;6.91;100.00;98382.88;5099835;28;20025;-68
2023/03/13 08:16:10;;;;;;;29.45;10.02;;;;;;;6.83;100.00;98359.19;5099985;28;20039;-67
2023/03/13 08:18:39;;;;;;;30.25;10.00;;;;;;;6.94;100.00;98361.00;5100492;28;20392;-68
2023/03/13 08:21:07;;;;;;;28.23;10.20;;;;;;;6.99;100.00;98355.78;5098911;28;20169;-67
2023/03/13 08:23:33;;;;;;;27.98;9.48;;;;;;;6.95;100.00;98335.91;5099818;28;20028;-67
2023/03/13 08:26:04;;;;;;;27.55;9.77;;;;;;;6.95;100.00;98337.75;5098587;28;20055;-67
2023/03/13 08:28:29;;;;;;;33.13;10.60;;;;;;;6.85;100.00;98318.84;5098309;28;20102;-68
2023/03/13 08:30:55;;;;;;;29.70;10.25;;;;;;;6.86;100.00;98299.91;5096632;28;20055;-67
2023/03/13 08:33:20;;;;;;;24.48;9.50;;;;;;;6.93;100.00;98283.72;5083357;28;20119;-67
2023/03/13 08:35:46;;;;;;;26.50;10.23;;;;;;;7.12;100.00;98301.22;5099818;28;20111;-67
2023/03/13 08:38:11;;;;;;;31.67;9.30;;;;;;;7.04;100.00;98286.34;5100804;28;20028;-67
2023/03/13 08:40:36;;;;;;;24.13;8.45;;;;;;;7.06;100.00;98272.75;5082612;28;20024;-67
2023/03/13 08:43:02;;;;;;;31.88;8.77;;;;;;;7.09;100.00;98266.13;5098610;28;20042;-68
2023/03/13 08:45:27;;;;;;;22.13;8.52;;;;;;;7.02;100.00;98231.53;5099893;28;20107;-67
2023/03/13 08:47:53;;;;;;;25.63;9.05;;;;;;;7.02;100.00;98226.97;5097965;28;20428;-67
2023/03/13 08:50:18;;;;;;;21.42;8.80;;;;;;;7.09;100.00;98237.53;5097496;28;20041;-67
2023/03/13 08:52:44;;;;;;;24.08;7.97;;;;;;;7.05;100.00;98233.69;5098678;28;20036;-67
2023/03/13 08:55:10;;;;;;;21.17;7.55;;;;;;;7.11;100.00;98215.88;5099209;28;20024;-68
2023/03/13 08:57:35;;;;;;;15.20;6.18;;;;;;;7.23;100.00;98208.63;5098849;28;20101;-67
2023/03/13 09:00:01;;;;;;;23.25;6.65;;;;;;;7.24;100.00;98200.34;5081518;28;20028;-67
2023/03/13 09:02:26;;;;;;;17.35;6.22;;;;;;;7.32;100.00;98201.00;5098757;28;20032;-67
2023/03/13 09:04:51;;;;;;;14.38;6.15;;;;;;;7.28;100.00;98189.97;5098161;28;20032;-68
2023/03/13 09:07:17;;;;;;;18.42;6.50;;;;;;;7.35;100.00;98184.47;5096631;28;20040;-67
2023/03/13 09:09:43;;;;;;;16.05;5.57;;;;;;;7.33;100.00;98171.34;5098971;28;20471;-67
2023/03/13 09:12:09;;;;;;;13.50;5.50;;;;;;;7.43;100.00;98168.84;5077446;28;20106;-67
2023/03/13 09:14:34;;;;;;;17.42;5.88;;;;;;;7.47;100.00;98167.28;5098694;28;20062;-67
2023/03/13 09:16:59;;;;;;;17.77;7.03;;;;;;;7.50;100.00;98160.63;5081697;28;20418;-67
2023/03/13 09:19:25;;;;;;;22.10;6.65;;;;;;;7.46;100.00;98149.63;5098632;28;20055;-67
2023/03/13 09:21:50;;;;;;;17.60;6.30;;;;;;;7.46;100.00;98144.25;5113562;28;20047;-67
2023/03/13 09:24:16;;;;;;;19.92;6.47;;;;;;;7.44;100.00;98132.97;5116190;28;20034;-67
2023/03/13 09:26:41;;;;;;;23.63;6.65;;;;;;;7.40;100.00;98126.50;5094712;28;20031;-67
2023/03/13 09:29:07;;;;;;;18.25;6.50;;;;;;;7.30;100.00;98110.31;5100855;28;20031;-68
2023/03/13 09:31:33;;;;;;;23.08;6.38;;;;;;;7.32;100.00;98113.56;5115534;28;20088;-67
2023/03/13 09:33:59;;;;;;;21.45;7.00;;;;;;;7.37;100.00;98118.97;5105915;28;20050;-67
2023/03/13 09:36:25;;;;;;;19.50;6.75;;;;;;;7.37;100.00;98091.41;5103631;28;20044;-67
2023/03/13 09:38:53;;;;;;;16.65;6.10;;;;;;;7.35;100.00;98097.03;5114779;28;20454;-68
2023/03/13 09:41:33;;;;;;;18.05;6.78;;;;;;;7.19;100.00;98073.78;5088924;28;20051;-68
2023/03/13 09:44:13;;;;;;;19.52;6.50;;;;;;;7.38;100.00;98087.69;5116595;28;20244;-68
2023/03/13 09:46:56;;;;;;;21.30;6.97;;;;;;;7.41;100.00;98076.50;5114662;28;20081;-68
2023/03/13 09:49:33;;;;;;;22.30;6.85;;;;;;;7.43;100.00;98058.34;5083774;28;20034;-68
2023/03/13 09:52:12;;;;;;;22.88;6.70;;;;;;;7.40;100.00;98040.91;5108119;28;20032;-67
2023/03/13 09:54:44;;;;;;;15.80;5.60;;;;;;;7.34;100.00;98033.06;5113239;28;20024;-68
2023/03/13 09:57:16;;;;;;;16.20;5.60;;;;;;;7.39;100.00;98023.25;5105635;28;20027;-67
2023/03/13 10:00:11;;;;;;;21.90;5.43;;;;;;;7.35;100.00;98011.44;5116442;28;20485;-67
2023/03/13 10:02:38;;;;;;;14.98;5.78;;;;;;;7.38;100.00;98002.88;5119322;28;20051;-67
2023/03/13 10:05:19;;;;;;;17.10;5.93;;;;;;;7.41;100.00;97986.34;5106384;28;20109;-67
2023/03/13 10:07:44;;;;;;;16.30;5.68;;;;;;;7.43;100.00;97984.22;5115437;28;20023;-68
2023/03/13 10:10:27;;;;;;;16.15;5.55;;;;;;;7.37;100.00;97979.88;5114099;28;20023;-67
2023/03/13 10:13:11;;;;;;;24.00;4.78;;;;;;;7.47;100.00;97961.25;5121674;28;20041;-67
2023/03/13 10:15:52;;;;;;;17.05;4.40;;;;;;;7.47;100.00;97963.94;5124122;28;20054;-68
2023/03/13 10:18:20;;;;;;;13.93;4.03;;;;;;;7.52;100.00;97941.81;5122554;28;20063;-68
2023/03/13 10:20:49;;;;;;;19.88;4.38;;;;;;;7.51;100.00;97932.94;5121313;28;20043;-68
2023/03/13 10:23:28;;;;;;;13.43;3.90;;;;;;;7.46;100.00;97900.81;5117041;28;20027;-68
2023/03/13 10:25:54;;;;;;;14.73;3.90;;;;;;;7.42;100.00;97910.38;5117923;28;20402;-68
2023/03/13 10:28:21;;;;;;;16.80;3.50;;;;;;;7.50;100.00;97903.78;5123569;28;20034;-68
2023/03/13 10:30:51;;;;;;;11.85;2.45;;;;;;;7.49;100.00;97896.81;5105750;28;20043;-68
2023/03/13 10:33:25;;;;;;;12.25;2.75;;;;;;;7.56;100.00;97897.44;5123625;28;20043;-68
2023/03/13 10:36:05;;;;;;;11.23;2.22;;;;;;;7.43;100.00;97881.75;5122037;28;20024;-68
2023/03/13 10:38:33;;;;;;;8.70;2.53;;;;;;;7.48;100.00;97876.47;5116042;28;20032;-68
2023/03/13 10:41:06;;;;;;;8.25;2.10;;;;;;;7.54;100.00;97878.13;5097108;28;20031;-67
2023/03/13 10:43:31;;;;;;;11.75;2.33;;;;;;;7.54;100.00;97862.88;5103274;28;20058;-67
2023/03/13 10:45:57;;;;;;;14.32;2.10;;;;;;;7.46;100.00;97865.22;5110219;28;20023;-67
2023/03/13 10:48:28;;;;;;;15.10;3.33;;;;;;;7.44;100.00;97857.44;5123854;28;20050;-67
2023/03/13 10:50:58;;;;;;;16.67;2.20;;;;;;;7.45;100.00;97842.19;5125083;28;20107;-68
2023/03/13 10:53:29;;;;;;;18.02;2.13;;;;;;;7.42;100.00;97845.38;5126238;28;20049;-67
2023/03/13 10:56:19;;;;;;;21.48;2.30;;;;;;;7.35;100.00;97845.56;5122484;28;20049;-67
2023/03/13 10:58:48;;;;;;;15.73;2.25;;;;;;;7.28;100.00;97816.34;5114370;28;20040;-68
2023/03/13 11:01:24;;;;;;;23.77;2.33;;;;;;;7.39;100.00;97821.81;5122383;28;20046;-67
2023/03/13 11:03:52;;;;;;;12.65;2.03;;;;;;;7.43;100.00;97806.88;5121584;28;20034;-67
2023/03/13 11:06:22;;;;;;;13.48;1.90;;;;;;;7.33;100.00;97786.16;5104969;28;20076;-67
2023/03/13 11:08:48;;;;;;;15.68;1.83;;;;;;;7.33;100.00;97780.81;5102061;28;20047;-67
2023/03/13 11:11:18;;;;;;;13.60;1.85;;;;;;;7.37;100.00;97781.13;5100261;28;20063;-67
2023/03/13 11:13:44;;;;;;;15.93;2.03;;;;;;;7.18;100.00;97744.00;5100598;28;20032;-67
2023/03/13 11:16:20;;;;;;;16.90;2.35;;;;;;;7.43;100.00;97756.03;5100829;28;20407;-67
2023/03/13 11:19:04;;;;;;;20.65;2.60;;;;;;;7.41;100.00;97756.28;5103787;28;20383;-67
2023/03/13 11:21:58;;;;;;;13.85;2.05;;;;;;;7.41;100.00;97740.22;5108187;28;20056;-67
2023/03/13 11:24:50;;;;;;;16.65;2.30;;;;;;;7.49;100.00;97742.44;5095261;28;20032;-67
2023/03/13 11:27:31;;;;;;;20.02;2.70;;;;;;;7.50;100.00;97727.19;5095238;28;20024;-67
2023/03/13 11:30:21;;;;;;;15.85;2.05;;;;;;;7.51;100.00;97721.59;5095411;28;20020;-67
2023/03/13 11:32:55;;;;;;;15.30;2.15;;;;;;;7.54;100.00;97712.25;5097020;28;20024;-67
2023/03/13 11:35:36;;;;;;;18.37;2.10;;;;;;;7.58;100.00;97699.97;5095811;28;20023;-66